sensor_id;sensor_type;location;lat;lon;timestamp;pressure;altitude;pressure_sealevel;temperature;humidity
26531;BME280;14201;43.188;24.160;2023-02-23T00:00:29;99559.72;;;7.29;66.00
26531;BME280;14201;43.188;24.160;2023-02-23T00:02:58;99555.25;;;7.27;66.05
26531;BME280;14201;43.188;24.160;2023-02-23T00:05:30;99553.53;;;7.11;66.65
26531;BME280;14201;43.188;24.160;2023-02-23T00:07:56;99552.69;;;6.96;68.24
26531;BME280;14201;43.188;24.160;2023-02-23T00:10:23;99553.31;;;6.92;67.45
26531;BME280;14201;43.188;24.160;2023-02-23T00:12:55;99532.03;;;6.81;67.24
26531;BME280;14201;43.188;24.160;2023-02-23T00:15:21;99557.84;;;6.96;67.13
26531;BME280;14201;43.188;24.160;2023-02-23T00:17:50;99553.84;;;7.01;67.24
26531;BME280;14201;43.188;24.160;2023-02-23T00:20:16;99559.81;;;7.00;67.38
26531;BME280;14201;43.188;24.160;2023-02-23T00:22:41;99539.69;;;6.94;67.90
26531;BME280;14201;43.188;24.160;2023-02-23T00:25:08;99558.47;;;7.06;68.20
26531;BME280;14201;43.188;24.160;2023-02-23T00:27:37;99553.09;;;7.03;68.55
26531;BME280;14201;43.188;24.160;2023-02-23T00:30:10;99550.44;;;7.02;67.83
26531;BME280;14201;43.188;24.160;2023-02-23T00:32:36;99565.06;;;7.01;68.28
26531;BME280;14201;43.188;24.160;2023-02-23T00:35:02;99550.63;;;6.90;68.69
26531;BME280;14201;43.188;24.160;2023-02-23T00:37:27;99555.53;;;7.00;68.50
26531;BME280;14201;43.188;24.160;2023-02-23T00:39:54;99554.56;;;6.98;68.30
26531;BME280;14201;43.188;24.160;2023-02-23T00:42:21;99553.75;;;6.99;67.57
26531;BME280;14201;43.188;24.160;2023-02-23T00:44:47;99544.03;;;6.95;68.11
26531;BME280;14201;43.188;24.160;2023-02-23T00:47:13;99551.06;;;6.98;67.20
26531;BME280;14201;43.188;24.160;2023-02-23T00:49:39;99548.16;;;6.92;67.49
26531;BME280;14201;43.188;24.160;2023-02-23T00:52:05;99538.53;;;6.89;67.44
26531;BME280;14201;43.188;24.160;2023-02-23T00:54:30;99542.88;;;6.90;68.10
26531;BME280;14201;43.188;24.160;2023-02-23T00:56:56;99548.06;;;6.90;67.80
26531;BME280;14201;43.188;24.160;2023-02-23T00:59:21;99549.59;;;6.86;68.46
26531;BME280;14201;43.188;24.160;2023-02-23T01:01:47;99542.09;;;6.91;68.76
26531;BME280;14201;43.188;24.160;2023-02-23T01:04:13;99550.94;;;6.80;69.18
26531;BME280;14201;43.188;24.160;2023-02-23T01:06:39;99551.91;;;6.82;69.05
26531;BME280;14201;43.188;24.160;2023-02-23T01:09:13;99550.16;;;6.81;68.63
26531;BME280;14201;43.188;24.160;2023-02-23T01:11:40;99550.78;;;6.77;69.36
26531;BME280;14201;43.188;24.160;2023-02-23T01:14:06;99549.00;;;6.76;68.84
26531;BME280;14201;43.188;24.160;2023-02-23T01:16:33;99546.22;;;6.73;68.93
26531;BME280;14201;43.188;24.160;2023-02-23T01:19:02;99543.56;;;6.71;68.66
26531;BME280;14201;43.188;24.160;2023-02-23T01:21:31;99550.19;;;6.66;68.61
26531;BME280;14201;43.188;24.160;2023-02-23T01:23:57;99545.09;;;6.67;68.58
26531;BME280;14201;43.188;24.160;2023-02-23T01:26:34;99542.50;;;6.67;68.63
26531;BME280;14201;43.188;24.160;2023-02-23T01:29:12;99543.94;;;6.62;68.87
26531;BME280;14201;43.188;24.160;2023-02-23T01:31:40;99541.34;;;6.62;68.34
26531;BME280;14201;43.188;24.160;2023-02-23T01:34:06;99544.56;;;6.58;68.78
26531;BME280;14201;43.188;24.160;2023-02-23T01:36:35;99535.84;;;6.56;68.13
26531;BME280;14201;43.188;24.160;2023-02-23T01:39:01;99538.97;;;6.50;68.10
26531;BME280;14201;43.188;24.160;2023-02-23T01:41:30;99545.66;;;6.47;68.66
26531;BME280;14201;43.188;24.160;2023-02-23T01:46:47;99533.25;;;6.41;68.50
26531;BME280;14201;43.188;24.160;2023-02-23T01:49:19;99549.50;;;6.39;68.82
26531;BME280;14201;43.188;24.160;2023-02-23T01:51:55;99539.34;;;6.42;69.73
26531;BME280;14201;43.188;24.160;2023-02-23T01:54:26;99541.56;;;6.36;69.45
26531;BME280;14201;43.188;24.160;2023-02-23T01:56:55;99555.31;;;6.35;69.62
26531;BME280;14201;43.188;24.160;2023-02-23T01:59:32;99521.41;;;6.30;69.43
26531;BME280;14201;43.188;24.160;2023-02-23T02:01:59;99537.22;;;6.35;68.79
26531;BME280;14201;43.188;24.160;2023-02-23T02:04:25;99543.16;;;6.34;69.08
26531;BME280;14201;43.188;24.160;2023-02-23T02:06:53;99544.97;;;6.35;69.69
26531;BME280;14201;43.188;24.160;2023-02-23T02:09:21;99528.91;;;6.25;70.69
26531;BME280;14201;43.188;24.160;2023-02-23T02:11:51;99538.53;;;6.43;70.31
26531;BME280;14201;43.188;24.160;2023-02-23T02:14:28;99521.41;;;6.30;70.52
26531;BME280;14201;43.188;24.160;2023-02-23T02:28:59;99544.28;;;6.22;71.51
26531;BME280;14201;43.188;24.160;2023-02-23T02:34:55;99546.41;;;6.00;66.66
26531;BME280;14201;43.188;24.160;2023-02-23T02:37:46;99545.72;;;5.74;67.37
26531;BME280;14201;43.188;24.160;2023-02-23T02:42:47;99549.66;;;5.54;68.71
26531;BME280;14201;43.188;24.160;2023-02-23T02:48:45;99558.34;;;5.55;71.77
26531;BME280;14201;43.188;24.160;2023-02-23T02:56:40;99552.09;;;5.51;71.49
26531;BME280;14201;43.188;24.160;2023-02-23T02:59:13;99549.25;;;5.61;71.38
26531;BME280;14201;43.188;24.160;2023-02-23T03:01:58;99562.88;;;5.59;71.60
26531;BME280;14201;43.188;24.160;2023-02-23T03:04:43;99559.50;;;5.60;71.50
26531;BME280;14201;43.188;24.160;2023-02-23T03:07:33;99566.63;;;5.64;71.27
26531;BME280;14201;43.188;24.160;2023-02-23T03:16:30;99575.34;;;5.51;72.15
26531;BME280;14201;43.188;24.160;2023-02-23T03:19:22;99576.31;;;5.53;72.78
26531;BME280;14201;43.188;24.160;2023-02-23T03:22:21;99578.03;;;5.52;72.62
26531;BME280;14201;43.188;24.160;2023-02-23T03:28:02;99581.13;;;5.62;71.93
26531;BME280;14201;43.188;24.160;2023-02-23T03:30:55;99575.50;;;5.54;72.23
26531;BME280;14201;43.188;24.160;2023-02-23T03:34:12;99572.84;;;5.52;72.03
26531;BME280;14201;43.188;24.160;2023-02-23T03:37:23;99588.53;;;5.56;71.81
26531;BME280;14201;43.188;24.160;2023-02-23T03:40:11;99581.38;;;5.51;72.40
26531;BME280;14201;43.188;24.160;2023-02-23T03:42:58;99585.19;;;5.43;72.74
26531;BME280;14201;43.188;24.160;2023-02-23T03:45:45;99580.81;;;5.42;73.17
26531;BME280;14201;43.188;24.160;2023-02-23T03:48:31;99585.97;;;5.42;72.40
26531;BME280;14201;43.188;24.160;2023-02-23T03:51:18;99589.75;;;5.47;72.43
26531;BME280;14201;43.188;24.160;2023-02-23T03:54:09;99592.34;;;5.47;72.06
26531;BME280;14201;43.188;24.160;2023-02-23T03:56:58;99585.28;;;5.45;72.50
26531;BME280;14201;43.188;24.160;2023-02-23T03:59:51;99583.41;;;5.42;72.61
26531;BME280;14201;43.188;24.160;2023-02-23T04:02:39;99599.34;;;5.35;72.58
26531;BME280;14201;43.188;24.160;2023-02-23T04:05:25;99594.81;;;5.46;72.42
26531;BME280;14201;43.188;24.160;2023-02-23T04:08:13;99593.75;;;5.29;72.90
26531;BME280;14201;43.188;24.160;2023-02-23T04:11:30;99609.56;;;5.33;73.18
26531;BME280;14201;43.188;24.160;2023-02-23T04:14:21;99604.91;;;5.28;72.11
26531;BME280;14201;43.188;24.160;2023-02-23T04:16:48;99610.69;;;5.24;73.04
26531;BME280;14201;43.188;24.160;2023-02-23T04:19:14;99615.00;;;5.38;72.50
26531;BME280;14201;43.188;24.160;2023-02-23T04:21:39;99606.25;;;5.36;72.60
26531;BME280;14201;43.188;24.160;2023-02-23T04:24:05;99609.47;;;5.32;73.36
26531;BME280;14201;43.188;24.160;2023-02-23T04:26:31;99615.94;;;5.25;72.15
26531;BME280;14201;43.188;24.160;2023-02-23T04:28:56;99621.28;;;5.28;72.64
26531;BME280;14201;43.188;24.160;2023-02-23T04:31:22;99622.25;;;5.30;72.71
26531;BME280;14201;43.188;24.160;2023-02-23T04:33:49;99618.91;;;5.31;71.78
26531;BME280;14201;43.188;24.160;2023-02-23T04:36:14;99601.47;;;5.01;70.49
26531;BME280;14201;43.188;24.160;2023-02-23T04:38:42;99629.84;;;5.14;70.06
26531;BME280;14201;43.188;24.160;2023-02-23T04:41:08;99627.41;;;5.02;70.38
26531;BME280;14201;43.188;24.160;2023-02-23T04:43:33;99630.84;;;5.03;70.71
26531;BME280;14201;43.188;24.160;2023-02-23T04:45:59;99630.75;;;4.88;71.14
26531;BME280;14201;43.188;24.160;2023-02-23T04:48:25;99630.97;;;4.91;70.77
26531;BME280;14201;43.188;24.160;2023-02-23T04:50:54;99632.25;;;4.98;70.91
26531;BME280;14201;43.188;24.160;2023-02-23T04:53:20;99636.63;;;4.99;71.14
26531;BME280;14201;43.188;24.160;2023-02-23T04:55:49;99633.72;;;4.94;71.43
26531;BME280;14201;43.188;24.160;2023-02-23T04:58:14;99627.88;;;4.83;71.86
26531;BME280;14201;43.188;24.160;2023-02-23T05:00:40;99634.94;;;4.86;71.90
26531;BME280;14201;43.188;24.160;2023-02-23T05:03:06;99647.22;;;4.50;74.20
26531;BME280;14201;43.188;24.160;2023-02-23T05:05:31;99651.94;;;4.44;72.26
26531;BME280;14201;43.188;24.160;2023-02-23T05:07:57;99655.94;;;4.52;72.92
26531;BME280;14201;43.188;24.160;2023-02-23T05:10:23;99654.84;;;4.48;71.14
26531;BME280;14201;43.188;24.160;2023-02-23T05:12:49;99659.88;;;4.33;70.66
26531;BME280;14201;43.188;24.160;2023-02-23T05:15:15;99670.53;;;4.26;69.69
26531;BME280;14201;43.188;24.160;2023-02-23T05:17:41;99672.66;;;4.32;70.37
26531;BME280;14201;43.188;24.160;2023-02-23T05:20:09;99670.28;;;4.35;70.37
26531;BME280;14201;43.188;24.160;2023-02-23T05:22:35;99659.09;;;4.34;71.47
26531;BME280;14201;43.188;24.160;2023-02-23T05:25:00;99659.38;;;4.39;71.83
26531;BME280;14201;43.188;24.160;2023-02-23T05:27:26;99673.38;;;4.43;72.95
26531;BME280;14201;43.188;24.160;2023-02-23T05:29:52;99673.09;;;4.51;73.58
26531;BME280;14201;43.188;24.160;2023-02-23T05:32:17;99688.19;;;4.59;73.74
26531;BME280;14201;43.188;24.160;2023-02-23T05:34:43;99679.75;;;4.61;74.54
26531;BME280;14201;43.188;24.160;2023-02-23T05:37:08;99686.59;;;4.61;75.00
26531;BME280;14201;43.188;24.160;2023-02-23T05:39:34;99695.72;;;4.69;75.69
26531;BME280;14201;43.188;24.160;2023-02-23T05:41:59;99704.69;;;4.74;75.58
26531;BME280;14201;43.188;24.160;2023-02-23T05:44:25;99709.63;;;4.71;74.00
26531;BME280;14201;43.188;24.160;2023-02-23T05:46:51;99707.81;;;4.57;72.54
26531;BME280;14201;43.188;24.160;2023-02-23T05:49:17;99712.25;;;4.46;72.00
26531;BME280;14201;43.188;24.160;2023-02-23T05:51:42;99708.25;;;4.38;70.94
26531;BME280;14201;43.188;24.160;2023-02-23T05:54:08;99716.13;;;4.39;71.51
26531;BME280;14201;43.188;24.160;2023-02-23T05:56:34;99716.69;;;4.35;71.71
26531;BME280;14201;43.188;24.160;2023-02-23T05:59:00;99728.31;;;4.42;73.12
26531;BME280;14201;43.188;24.160;2023-02-23T06:01:29;99735.78;;;4.50;73.22
26531;BME280;14201;43.188;24.160;2023-02-23T06:03:55;99732.09;;;4.47;73.16
26531;BME280;14201;43.188;24.160;2023-02-23T06:06:21;99727.72;;;4.46;73.88
26531;BME280;14201;43.188;24.160;2023-02-23T06:08:50;99738.03;;;4.46;74.11
26531;BME280;14201;43.188;24.160;2023-02-23T06:11:16;99735.09;;;4.53;74.54
26531;BME280;14201;43.188;24.160;2023-02-23T06:13:41;99739.06;;;4.61;74.91
26531;BME280;14201;43.188;24.160;2023-02-23T06:16:07;99749.06;;;4.82;74.82
26531;BME280;14201;43.188;24.160;2023-02-23T06:18:33;99743.09;;;4.96;74.89
26531;BME280;14201;43.188;24.160;2023-02-23T06:20:59;99739.97;;;5.00;74.40
26531;BME280;14201;43.188;24.160;2023-02-23T06:23:29;99751.25;;;5.16;74.76
26531;BME280;14201;43.188;24.160;2023-02-23T06:25:55;99734.59;;;5.37;74.15
26531;BME280;14201;43.188;24.160;2023-02-23T06:28:22;99752.97;;;5.55;73.79
26531;BME280;14201;43.188;24.160;2023-02-23T06:30:51;99745.06;;;5.80;73.97
26531;BME280;14201;43.188;24.160;2023-02-23T06:33:17;99749.75;;;5.86;74.31
26531;BME280;14201;43.188;24.160;2023-02-23T06:35:43;99751.47;;;6.14;74.38
26531;BME280;14201;43.188;24.160;2023-02-23T06:38:09;99752.41;;;6.57;74.04
26531;BME280;14201;43.188;24.160;2023-02-23T06:40:37;99749.19;;;6.91;72.86
26531;BME280;14201;43.188;24.160;2023-02-23T06:43:02;99751.59;;;7.18;72.14
26531;BME280;14201;43.188;24.160;2023-02-23T06:45:30;99754.75;;;7.58;72.76
26531;BME280;14201;43.188;24.160;2023-02-23T06:47:57;99760.44;;;7.67;72.14
26531;BME280;14201;43.188;24.160;2023-02-23T06:50:22;99757.78;;;7.66;71.58
26531;BME280;14201;43.188;24.160;2023-02-23T06:52:48;99759.88;;;7.73;70.94
26531;BME280;14201;43.188;24.160;2023-02-23T06:55:14;99757.03;;;7.68;71.47
26531;BME280;14201;43.188;24.160;2023-02-23T06:57:41;99755.31;;;7.84;70.87
26531;BME280;14201;43.188;24.160;2023-02-23T07:00:12;99761.06;;;7.95;70.64
26531;BME280;14201;43.188;24.160;2023-02-23T07:02:40;99760.66;;;8.51;70.97
26531;BME280;14201;43.188;24.160;2023-02-23T07:05:06;99753.19;;;8.57;71.97
26531;BME280;14201;43.188;24.160;2023-02-23T07:07:32;99749.91;;;8.78;70.13
26531;BME280;14201;43.188;24.160;2023-02-23T07:09:58;99747.97;;;9.08;69.13
26531;BME280;14201;43.188;24.160;2023-02-23T07:12:24;99751.25;;;9.58;67.23
26531;BME280;14201;43.188;24.160;2023-02-23T07:14:49;99748.63;;;9.76;65.82
26531;BME280;14201;43.188;24.160;2023-02-23T07:17:15;99754.06;;;10.00;66.23
26531;BME280;14201;43.188;24.160;2023-02-23T07:19:42;99740.09;;;9.98;65.88
26531;BME280;14201;43.188;24.160;2023-02-23T07:22:08;99748.88;;;10.19;67.14
26531;BME280;14201;43.188;24.160;2023-02-23T07:24:33;99748.91;;;10.58;64.96
26531;BME280;14201;43.188;24.160;2023-02-23T07:26:59;99744.34;;;10.93;64.90
26531;BME280;14201;43.188;24.160;2023-02-23T07:29:24;99746.53;;;11.25;62.68
26531;BME280;14201;43.188;24.160;2023-02-23T07:31:53;99751.59;;;11.42;61.51
26531;BME280;14201;43.188;24.160;2023-02-23T07:34:18;99750.09;;;11.70;60.76
26531;BME280;14201;43.188;24.160;2023-02-23T07:36:44;99749.59;;;12.01;60.92
26531;BME280;14201;43.188;24.160;2023-02-23T07:39:10;99756.41;;;12.20;59.66
26531;BME280;14201;43.188;24.160;2023-02-23T07:41:35;99749.53;;;12.71;58.09
26531;BME280;14201;43.188;24.160;2023-02-23T07:44:01;99755.69;;;12.73;58.31
26531;BME280;14201;43.188;24.160;2023-02-23T07:46:27;99752.19;;;12.72;57.78
26531;BME280;14201;43.188;24.160;2023-02-23T07:48:53;99753.34;;;13.30;57.54
26531;BME280;14201;43.188;24.160;2023-02-23T07:51:18;99748.63;;;13.47;55.89
26531;BME280;14201;43.188;24.160;2023-02-23T07:53:44;99747.50;;;13.66;55.40
26531;BME280;14201;43.188;24.160;2023-02-23T07:56:11;99752.28;;;14.08;56.22
26531;BME280;14201;43.188;24.160;2023-02-23T07:58:39;99747.59;;;14.57;54.87
26531;BME280;14201;43.188;24.160;2023-02-23T08:01:05;99749.41;;;14.91;54.68
26531;BME280;14201;43.188;24.160;2023-02-23T08:03:30;99751.03;;;15.21;53.04
26531;BME280;14201;43.188;24.160;2023-02-23T08:05:56;99755.97;;;15.44;51.78
26531;BME280;14201;43.188;24.160;2023-02-23T08:08:21;99751.09;;;15.59;51.53
26531;BME280;14201;43.188;24.160;2023-02-23T08:10:47;99746.44;;;15.84;50.70
26531;BME280;14201;43.188;24.160;2023-02-23T08:13:13;99747.69;;;16.01;50.68
26531;BME280;14201;43.188;24.160;2023-02-23T08:15:38;99741.91;;;16.16;49.86
26531;BME280;14201;43.188;24.160;2023-02-23T08:18:04;99755.72;;;16.48;49.97
26531;BME280;14201;43.188;24.160;2023-02-23T08:20:30;99742.59;;;15.69;47.85
26531;BME280;14201;43.188;24.160;2023-02-23T08:22:56;99750.94;;;15.88;48.73
26531;BME280;14201;43.188;24.160;2023-02-23T08:25:23;99752.19;;;16.05;48.93
26531;BME280;14201;43.188;24.160;2023-02-23T08:27:49;99751.63;;;16.20;48.14
26531;BME280;14201;43.188;24.160;2023-02-23T08:30:17;99753.97;;;16.49;48.26
26531;BME280;14201;43.188;24.160;2023-02-23T08:32:44;99751.56;;;15.78;47.87
26531;BME280;14201;43.188;24.160;2023-02-23T08:35:10;99759.38;;;15.74;48.82
26531;BME280;14201;43.188;24.160;2023-02-23T08:37:36;99761.44;;;16.29;49.02
26531;BME280;14201;43.188;24.160;2023-02-23T08:40:02;99763.31;;;15.95;48.25
26531;BME280;14201;43.188;24.160;2023-02-23T08:42:28;99760.78;;;15.98;48.05
26531;BME280;14201;43.188;24.160;2023-02-23T08:44:53;99757.72;;;15.80;48.17
26531;BME280;14201;43.188;24.160;2023-02-23T08:47:19;99755.97;;;15.09;49.68
26531;BME280;14201;43.188;24.160;2023-02-23T08:49:46;99765.41;;;14.40;52.59
26531;BME280;14201;43.188;24.160;2023-02-23T08:52:12;99758.75;;;14.51;52.65
26531;BME280;14201;43.188;24.160;2023-02-23T08:54:38;99753.00;;;14.63;53.21
26531;BME280;14201;43.188;24.160;2023-02-23T08:57:03;99744.88;;;15.19;53.04
26531;BME280;14201;43.188;24.160;2023-02-23T08:59:29;99749.13;;;15.50;50.30
26531;BME280;14201;43.188;24.160;2023-02-23T09:01:55;99754.72;;;15.29;50.92
26531;BME280;14201;43.188;24.160;2023-02-23T09:04:20;99751.97;;;14.56;53.01
26531;BME280;14201;43.188;24.160;2023-02-23T09:06:46;99748.34;;;15.18;53.04
26531;BME280;14201;43.188;24.160;2023-02-23T09:09:12;99753.22;;;15.03;51.29
26531;BME280;14201;43.188;24.160;2023-02-23T09:11:39;99749.28;;;15.22;52.03
26531;BME280;14201;43.188;24.160;2023-02-23T09:14:04;99753.56;;;15.89;51.74
26531;BME280;14201;43.188;24.160;2023-02-23T09:16:30;99757.00;;;16.26;50.68
26531;BME280;14201;43.188;24.160;2023-02-23T09:18:56;99758.69;;;16.67;47.96
26531;BME280;14201;43.188;24.160;2023-02-23T09:21:25;99757.69;;;17.04;48.41
26531;BME280;14201;43.188;24.160;2023-02-23T09:23:54;99763.34;;;17.26;47.61
26531;BME280;14201;43.188;24.160;2023-02-23T09:26:21;99760.31;;;17.56;46.33
26531;BME280;14201;43.188;24.160;2023-02-23T09:28:47;99758.25;;;17.93;45.65
26531;BME280;14201;43.188;24.160;2023-02-23T09:31:18;99758.47;;;18.07;44.23
26531;BME280;14201;43.188;24.160;2023-02-23T09:33:44;99759.31;;;18.04;44.07
26531;BME280;14201;43.188;24.160;2023-02-23T09:36:16;99765.47;;;18.06;43.69
26531;BME280;14201;43.188;24.160;2023-02-23T09:38:43;99758.97;;;18.44;44.91
26531;BME280;14201;43.188;24.160;2023-02-23T09:44:01;99768.28;;;18.89;43.68
26531;BME280;14201;43.188;24.160;2023-02-23T09:49:00;99760.56;;;19.09;43.82
26531;BME280;14201;43.188;24.160;2023-02-23T09:51:27;99758.97;;;19.26;43.09
26531;BME280;14201;43.188;24.160;2023-02-23T09:53:55;99767.91;;;19.44;42.63
26531;BME280;14201;43.188;24.160;2023-02-23T09:58:49;99759.28;;;19.62;41.66
26531;BME280;14201;43.188;24.160;2023-02-23T10:06:31;99764.63;;;18.78;43.19
26531;BME280;14201;43.188;24.160;2023-02-23T10:19:31;99769.84;;;18.73;43.49
26531;BME280;14201;43.188;24.160;2023-02-23T10:22:01;99766.50;;;18.88;43.74
26531;BME280;14201;43.188;24.160;2023-02-23T10:24:28;99761.88;;;18.67;42.87
26531;BME280;14201;43.188;24.160;2023-02-23T10:26:58;99760.72;;;18.45;42.79
26531;BME280;14201;43.188;24.160;2023-02-23T10:29:29;99761.50;;;18.39;44.39
26531;BME280;14201;43.188;24.160;2023-02-23T10:31:59;99750.16;;;18.45;43.77
26531;BME280;14201;43.188;24.160;2023-02-23T10:34:27;99758.16;;;18.53;43.60
26531;BME280;14201;43.188;24.160;2023-02-23T10:37:01;99759.34;;;18.78;43.22
26531;BME280;14201;43.188;24.160;2023-02-23T10:39:30;99762.75;;;18.70;43.52
26531;BME280;14201;43.188;24.160;2023-02-23T10:41:56;99754.84;;;18.69;43.50
26531;BME280;14201;43.188;24.160;2023-02-23T10:44:24;99749.97;;;19.04;43.23
26531;BME280;14201;43.188;24.160;2023-02-23T10:47:06;99756.25;;;19.16;43.02
26531;BME280;14201;43.188;24.160;2023-02-23T10:52:09;99753.72;;;19.33;41.65
26531;BME280;14201;43.188;24.160;2023-02-23T10:54:38;99746.13;;;18.75;42.66
26531;BME280;14201;43.188;24.160;2023-02-23T10:57:10;99748.28;;;17.74;44.54
26531;BME280;14201;43.188;24.160;2023-02-23T10:59:51;99738.19;;;18.01;44.28
26531;BME280;14201;43.188;24.160;2023-02-23T11:02:24;99748.50;;;17.86;43.85
26531;BME280;14201;43.188;24.160;2023-02-23T11:04:54;99746.00;;;17.94;45.01
26531;BME280;14201;43.188;24.160;2023-02-23T11:07:24;99750.41;;;17.96;44.23
26531;BME280;14201;43.188;24.160;2023-02-23T11:09:54;99751.41;;;18.06;43.95
26531;BME280;14201;43.188;24.160;2023-02-23T11:14:52;99739.53;;;17.75;44.85
26531;BME280;14201;43.188;24.160;2023-02-23T11:17:31;99757.56;;;18.05;44.13
26531;BME280;14201;43.188;24.160;2023-02-23T11:19:58;99755.22;;;18.28;43.20
26531;BME280;14201;43.188;24.160;2023-02-23T11:22:28;99752.56;;;18.28;43.31
26531;BME280;14201;43.188;24.160;2023-02-23T11:24:54;99749.78;;;18.16;43.10
26531;BME280;14201;43.188;24.160;2023-02-23T11:27:21;99754.56;;;17.82;44.12
26531;BME280;14201;43.188;24.160;2023-02-23T11:29:48;99742.44;;;17.93;43.45
26531;BME280;14201;43.188;24.160;2023-02-23T11:32:21;99755.63;;;17.93;44.56
26531;BME280;14201;43.188;24.160;2023-02-23T11:37:34;99754.47;;;18.37;42.92
26531;BME280;14201;43.188;24.160;2023-02-23T11:40:02;99755.16;;;18.22;42.99
26531;BME280;14201;43.188;24.160;2023-02-23T11:42:49;99748.88;;;18.12;43.82
26531;BME280;14201;43.188;24.160;2023-02-23T11:45:18;99753.38;;;18.21;43.65
26531;BME280;14201;43.188;24.160;2023-02-23T11:47:45;99748.41;;;18.45;44.35
26531;BME280;14201;43.188;24.160;2023-02-23T11:50:33;99753.84;;;18.61;42.56
26531;BME280;14201;43.188;24.160;2023-02-23T11:53:04;99759.00;;;18.48;43.00
26531;BME280;14201;43.188;24.160;2023-02-23T11:55:31;99752.88;;;18.53;42.74
26531;BME280;14201;43.188;24.160;2023-02-23T11:58:13;99750.44;;;18.69;42.65
26531;BME280;14201;43.188;24.160;2023-02-23T12:00:42;99756.00;;;18.91;42.48
26531;BME280;14201;43.188;24.160;2023-02-23T12:18:14;99754.13;;;18.81;42.70
26531;BME280;14201;43.188;24.160;2023-02-23T12:20:41;99747.78;;;18.66;42.18
26531;BME280;14201;43.188;24.160;2023-02-23T12:23:09;99749.31;;;18.47;43.04
26531;BME280;14201;43.188;24.160;2023-02-23T12:25:47;99750.22;;;18.48;43.00
26531;BME280;14201;43.188;24.160;2023-02-23T12:28:17;99745.78;;;18.44;43.13
26531;BME280;14201;43.188;24.160;2023-02-23T12:30:49;99750.97;;;18.39;43.17
26531;BME280;14201;43.188;24.160;2023-02-23T12:33:18;99745.94;;;18.58;42.54
26531;BME280;14201;43.188;24.160;2023-02-23T12:35:51;99749.47;;;18.60;41.75
26531;BME280;14201;43.188;24.160;2023-02-23T12:40:43;99762.94;;;18.14;43.51
26531;BME280;14201;43.188;24.160;2023-02-23T12:46:24;99764.72;;;18.14;43.33
26531;BME280;14201;43.188;24.160;2023-02-23T12:48:45;99761.09;;;18.05;43.48
26531;BME280;14201;43.188;24.160;2023-02-23T12:51:17;99763.19;;;18.31;43.14
26531;BME280;14201;43.188;24.160;2023-02-23T12:53:45;99759.72;;;18.35;43.35
26531;BME280;14201;43.188;24.160;2023-02-23T12:58:46;99758.16;;;18.49;43.36
26531;BME280;14201;43.188;24.160;2023-02-23T13:01:15;99759.13;;;18.59;41.57
26531;BME280;14201;43.188;24.160;2023-02-23T13:16:22;99757.44;;;18.66;42.38
26531;BME280;14201;43.188;24.160;2023-02-23T13:18:51;99763.34;;;18.42;42.36
26531;BME280;14201;43.188;24.160;2023-02-23T13:31:30;99759.81;;;17.80;43.15
26531;BME280;14201;43.188;24.160;2023-02-23T13:33:57;99752.03;;;17.33;43.66
26531;BME280;14201;43.188;24.160;2023-02-23T13:36:23;99766.06;;;17.32;43.64
26531;BME280;14201;43.188;24.160;2023-02-23T13:44:06;99760.34;;;17.04;44.70
26531;BME280;14201;43.188;24.160;2023-02-23T13:46:51;99763.94;;;17.11;45.00
26531;BME280;14201;43.188;24.160;2023-02-23T13:49:21;99769.81;;;16.95;44.49
26531;BME280;14201;43.188;24.160;2023-02-23T13:51:54;99764.41;;;16.88;45.05
26531;BME280;14201;43.188;24.160;2023-02-23T13:54:22;99766.34;;;16.97;45.30
26531;BME280;14201;43.188;24.160;2023-02-23T13:56:49;99760.19;;;16.97;45.09
26531;BME280;14201;43.188;24.160;2023-02-23T13:59:19;99763.66;;;16.96;45.34
26531;BME280;14201;43.188;24.160;2023-02-23T14:01:46;99761.22;;;17.05;45.15
26531;BME280;14201;43.188;24.160;2023-02-23T14:04:13;99764.69;;;17.02;45.08
26531;BME280;14201;43.188;24.160;2023-02-23T14:06:40;99756.88;;;17.08;45.20
26531;BME280;14201;43.188;24.160;2023-02-23T14:09:18;99757.78;;;17.09;45.06
26531;BME280;14201;43.188;24.160;2023-02-23T14:11:46;99760.56;;;17.18;45.44
26531;BME280;14201;43.188;24.160;2023-02-23T14:14:14;99757.94;;;17.18;44.55
26531;BME280;14201;43.188;24.160;2023-02-23T14:16:41;99768.22;;;17.04;44.20
26531;BME280;14201;43.188;24.160;2023-02-23T14:19:10;99766.34;;;16.97;44.44
26531;BME280;14201;43.188;24.160;2023-02-23T14:21:56;99759.97;;;16.86;44.61
26531;BME280;14201;43.188;24.160;2023-02-23T14:24:24;99766.03;;;16.82;45.35
26531;BME280;14201;43.188;24.160;2023-02-23T14:29:39;99759.88;;;16.81;45.24
26531;BME280;14201;43.188;24.160;2023-02-23T14:37:48;99755.22;;;16.68;45.67
26531;BME280;14201;43.188;24.160;2023-02-23T14:40:05;99751.56;;;16.61;45.84
26531;BME280;14201;43.188;24.160;2023-02-23T14:42:33;99761.28;;;16.64;45.74
26531;BME280;14201;43.188;24.160;2023-02-23T14:45:02;99761.19;;;16.59;46.01
26531;BME280;14201;43.188;24.160;2023-02-23T14:47:28;99760.25;;;16.56;45.74
26531;BME280;14201;43.188;24.160;2023-02-23T14:49:59;99756.47;;;16.43;46.38
26531;BME280;14201;43.188;24.160;2023-02-23T14:52:51;99766.00;;;16.38;46.59
26531;BME280;14201;43.188;24.160;2023-02-23T14:55:39;99762.13;;;16.20;46.85
26531;BME280;14201;43.188;24.160;2023-02-23T14:58:22;99755.75;;;16.07;47.09
26531;BME280;14201;43.188;24.160;2023-02-23T15:00:47;99752.19;;;16.05;46.93
26531;BME280;14201;43.188;24.160;2023-02-23T15:03:16;99755.50;;;15.97;47.31
26531;BME280;14201;43.188;24.160;2023-02-23T15:05:44;99761.28;;;15.82;47.54
26531;BME280;14201;43.188;24.160;2023-02-23T15:08:16;99756.94;;;15.82;47.63
26531;BME280;14201;43.188;24.160;2023-02-23T15:10:45;99760.25;;;15.75;47.68
26531;BME280;14201;43.188;24.160;2023-02-23T15:15:43;99758.28;;;15.68;48.05
26531;BME280;14201;43.188;24.160;2023-02-23T15:18:09;99762.41;;;15.56;48.50
26531;BME280;14201;43.188;24.160;2023-02-23T15:20:43;99769.41;;;15.56;48.47